Joe Lochrico — WDJ3868 — position and weather

sailwx.info

Track history (hours):
 
Tides and Currents Weather Stations Pressure Air Temp Water Temp Dewpoint Dewpoint Depression Visibility Wind Speed Wind Dir Waves Ship Positions

Joe Lochrico

Owner: Kirby Inland Marine, LP, Houston, TX. More information available from US FCC via Universal Licensing System and Coast Guard Vessel Documentation Center.

Last reported at 2017-Oct-20 16:00 UTC. Time now 2017-Oct-20 16:14 UTC.
Position N 29°45' W 095°06'.

Length 210 m; draft 3 m.

Type: Pleasure craft. MMSI: 367772180.

Date/timePositionNaut miles runAvg speedWind from/ knotsBaromVisibWave heightAir tempDewpointWater temp
2017-Oct-20 16:00N 29°45' W 095°06'1 0.6
2017-Oct-20 13:59N 29°46' W 095°05'2 0.1
2017-Oct-19 23:16N 29°45' W 095°06'0 0.1
2017-Oct-19 18:47N 29°45' W 095°06'2 4.4
2017-Oct-19 18:18N 29°47' W 095°05'0 0.7
2017-Oct-19 17:47N 29°46' W 095°05'1 3.1
2017-Oct-19 17:28N 29°46' W 095°04'3 6.4
2017-Oct-19 17:00N 29°44' W 095°01'3 6.1
2017-Oct-19 16:31N 29°41' W 094°59'4 7.2
2017-Oct-19 16:01N 29°38' W 094°58'4 7.4
2017-Oct-19 15:30N 29°35' W 094°56'4 7.3
2017-Oct-19 14:59N 29°32' W 094°53'4 7.3
2017-Oct-19 14:28N 29°28' W 094°51'  
2017-Oct-13 07:03N 29°23' W 094°47'1 5.6
2017-Oct-13 06:56N 29°22' W 094°47'3 2.9
2017-Oct-13 05:56N 29°22' W 094°50'2 4.9
2017-Oct-13 05:29N 29°23' W 094°53'  
Track history (hours):
 
Tides and Currents Weather Stations Pressure Air Temp Water Temp Dewpoint Dewpoint Depression Visibility Wind Speed Wind Dir Waves Ship Positions

Joe Lochrico

Owner: Kirby Inland Marine, LP, Houston, TX. More information available from US FCC via Universal Licensing System and Coast Guard Vessel Documentation Center.

Last reported at 2017-Oct-20 16:00 UTC. Time now 2017-Oct-20 16:14 UTC.
Position N 29°45' W 095°06'.

Length 210 m; draft 3 m.

Type: Pleasure craft. MMSI: 367772180.

Date/timePositionNaut miles runAvg speedWind from/ knotsBaromVisibWave heightAir tempDewpointWater temp
2017-Oct-20 16:00N 29°45' W 095°06'1 0.6
2017-Oct-20 13:59N 29°46' W 095°05'2 0.1
2017-Oct-19 23:16N 29°45' W 095°06'0 0.1
2017-Oct-19 18:47N 29°45' W 095°06'2 4.4
2017-Oct-19 18:18N 29°47' W 095°05'0 0.7
2017-Oct-19 17:47N 29°46' W 095°05'1 3.1
2017-Oct-19 17:28N 29°46' W 095°04'3 6.4
2017-Oct-19 17:00N 29°44' W 095°01'3 6.1
2017-Oct-19 16:31N 29°41' W 094°59'4 7.2
2017-Oct-19 16:01N 29°38' W 094°58'4 7.4
2017-Oct-19 15:30N 29°35' W 094°56'4 7.3
2017-Oct-19 14:59N 29°32' W 094°53'4 7.3
2017-Oct-19 14:28N 29°28' W 094°51'  
2017-Oct-13 07:03N 29°23' W 094°47'1 5.6
2017-Oct-13 06:56N 29°22' W 094°47'3 2.9
2017-Oct-13 05:56N 29°22' W 094°50'2 4.9
2017-Oct-13 05:29N 29°23' W 094°53'  

Dump ship's entire track history